• location
  • image
mod_vvisit_countermod_vvisit_countermod_vvisit_countermod_vvisit_countermod_vvisit_countermod_vvisit_countermod_vvisit_counter
mod_vvisit_counterToday268
mod_vvisit_counterYesterday924
mod_vvisit_counterThis week3235
mod_vvisit_counterLast week4158
mod_vvisit_counterThis month9961
mod_vvisit_counterLast month22275
mod_vvisit_counterAll days1018193

We have: 9 guests online
Your IP: 54.144.100.123
 , 
Today: Nov 16, 2018
Airport

AP V2 EN

 

 

You can watch a film about services of Siauliai International Airport

Today

Friday, 16 November 2018

Aviation Weather Forecast

[source: ADDS]
METAR
EYSA 160650Z 16006KT 9999 FEW008 OVC024 04/03 Q1041 R14L/09//95 WHT NOSIG =
TAF EYSA 160508Z 1606/1615 VRB05KT 7000 BKN015 TEMPO 1606/1609 SCT005
TAF
TAF EYSA 160508Z 1606/1615 VRB05KT 7000 BKN015 TEMPO 1606/1609 SCT005 =
SR / SS: 06:02 / 14:23 UTC (EYSA 2018-11-16)

Search

Who's Online

We have 9 guests online

tic logo en